sensor_id;sensor_type;location;lat;lon;timestamp;P1;durP1;ratioP1;P2;durP2;ratioP2
3597;SDS011;1813;52.016;8.714;2022-08-11T00:00:41;5.13;;;4.00;;
3597;SDS011;1813;52.016;8.714;2022-08-11T00:03:14;7.80;;;3.97;;
3597;SDS011;1813;52.016;8.714;2022-08-11T00:05:51;4.27;;;3.87;;
3597;SDS011;1813;52.016;8.714;2022-08-11T00:08:26;5.43;;;4.00;;
3597;SDS011;1813;52.016;8.714;2022-08-11T00:11:01;4.30;;;3.67;;
3597;SDS011;1813;52.016;8.714;2022-08-11T00:13:34;5.73;;;4.00;;
3597;SDS011;1813;52.016;8.714;2022-08-11T00:16:10;5.50;;;4.03;;
3597;SDS011;1813;52.016;8.714;2022-08-11T00:18:45;5.70;;;4.53;;
3597;SDS011;1813;52.016;8.714;2022-08-11T00:21:21;9.40;;;4.00;;
3597;SDS011;1813;52.016;8.714;2022-08-11T00:23:56;9.30;;;3.80;;
3597;SDS011;1813;52.016;8.714;2022-08-11T00:26:30;4.23;;;3.83;;
3597;SDS011;1813;52.016;8.714;2022-08-11T00:29:07;4.60;;;4.00;;
3597;SDS011;1813;52.016;8.714;2022-08-11T00:31:42;5.10;;;4.30;;
3597;SDS011;1813;52.016;8.714;2022-08-11T00:34:20;10.93;;;4.20;;
3597;SDS011;1813;52.016;8.714;2022-08-11T00:36:58;5.20;;;4.07;;
3597;SDS011;1813;52.016;8.714;2022-08-11T00:39:33;6.57;;;4.33;;
3597;SDS011;1813;52.016;8.714;2022-08-11T00:42:15;5.43;;;4.20;;
3597;SDS011;1813;52.016;8.714;2022-08-11T00:45:00;5.40;;;4.23;;
3597;SDS011;1813;52.016;8.714;2022-08-11T00:47:40;5.63;;;4.20;;
3597;SDS011;1813;52.016;8.714;2022-08-11T00:50:26;4.77;;;4.20;;
3597;SDS011;1813;52.016;8.714;2022-08-11T00:53:15;5.43;;;4.40;;
3597;SDS011;1813;52.016;8.714;2022-08-11T00:56:14;8.60;;;4.70;;
3597;SDS011;1813;52.016;8.714;2022-08-11T01:01:58;7.00;;;4.10;;
3597;SDS011;1813;52.016;8.714;2022-08-11T01:05:02;5.20;;;4.10;;
3597;SDS011;1813;52.016;8.714;2022-08-11T01:08:03;10.33;;;4.60;;
3597;SDS011;1813;52.016;8.714;2022-08-11T01:10:53;7.40;;;4.87;;
3597;SDS011;1813;52.016;8.714;2022-08-11T01:13:45;8.43;;;4.43;;
3597;SDS011;1813;52.016;8.714;2022-08-11T01:23:14;6.77;;;4.50;;
3597;SDS011;1813;52.016;8.714;2022-08-11T01:33:03;7.60;;;4.57;;
3597;SDS011;1813;52.016;8.714;2022-08-11T01:45:58;5.27;;;4.70;;
3597;SDS011;1813;52.016;8.714;2022-08-11T01:48:38;7.13;;;5.40;;
3597;SDS011;1813;52.016;8.714;2022-08-11T01:51:14;11.47;;;4.90;;
3597;SDS011;1813;52.016;8.714;2022-08-11T01:53:56;12.30;;;4.60;;
3597;SDS011;1813;52.016;8.714;2022-08-11T01:56:43;5.43;;;4.73;;
3597;SDS011;1813;52.016;8.714;2022-08-11T01:59:24;5.63;;;4.63;;
3597;SDS011;1813;52.016;8.714;2022-08-11T02:02:08;5.20;;;4.63;;
3597;SDS011;1813;52.016;8.714;2022-08-11T02:05:19;7.47;;;5.00;;
3597;SDS011;1813;52.016;8.714;2022-08-11T02:07:59;10.80;;;4.90;;
3597;SDS011;1813;52.016;8.714;2022-08-11T02:10:43;8.70;;;4.90;;
3597;SDS011;1813;52.016;8.714;2022-08-11T02:13:36;5.43;;;4.93;;
3597;SDS011;1813;52.016;8.714;2022-08-11T02:16:16;5.13;;;4.47;;
3597;SDS011;1813;52.016;8.714;2022-08-11T02:18:54;6.10;;;4.50;;
3597;SDS011;1813;52.016;8.714;2022-08-11T02:22:02;15.60;;;5.20;;
3597;SDS011;1813;52.016;8.714;2022-08-11T02:24:57;6.13;;;4.97;;
3597;SDS011;1813;52.016;8.714;2022-08-11T02:27:35;5.63;;;5.13;;
3597;SDS011;1813;52.016;8.714;2022-08-11T02:30:13;5.73;;;4.70;;
3597;SDS011;1813;52.016;8.714;2022-08-11T02:32:49;5.50;;;5.00;;
3597;SDS011;1813;52.016;8.714;2022-08-11T02:35:41;10.20;;;5.40;;
3597;SDS011;1813;52.016;8.714;2022-08-11T02:38:23;7.70;;;5.20;;
3597;SDS011;1813;52.016;8.714;2022-08-11T02:41:01;10.27;;;4.80;;
3597;SDS011;1813;52.016;8.714;2022-08-11T02:44:05;12.73;;;5.10;;
3597;SDS011;1813;52.016;8.714;2022-08-11T02:46:48;5.73;;;5.13;;
3597;SDS011;1813;52.016;8.714;2022-08-11T02:49:40;7.03;;;5.00;;
3597;SDS011;1813;52.016;8.714;2022-08-11T02:52:24;7.50;;;5.43;;
3597;SDS011;1813;52.016;8.714;2022-08-11T02:55:09;9.67;;;5.10;;
3597;SDS011;1813;52.016;8.714;2022-08-11T02:57:50;9.43;;;5.27;;
3597;SDS011;1813;52.016;8.714;2022-08-11T03:00:29;5.90;;;4.90;;
3597;SDS011;1813;52.016;8.714;2022-08-11T03:03:16;9.97;;;5.10;;
3597;SDS011;1813;52.016;8.714;2022-08-11T03:06:01;5.90;;;5.40;;
3597;SDS011;1813;52.016;8.714;2022-08-11T03:08:46;6.80;;;5.43;;
3597;SDS011;1813;52.016;8.714;2022-08-11T03:11:30;5.53;;;4.60;;
3597;SDS011;1813;52.016;8.714;2022-08-11T03:14:37;6.70;;;5.03;;
3597;SDS011;1813;52.016;8.714;2022-08-11T03:17:39;8.87;;;5.03;;
3597;SDS011;1813;52.016;8.714;2022-08-11T03:20:19;8.87;;;5.20;;
3597;SDS011;1813;52.016;8.714;2022-08-11T03:22:59;14.43;;;5.57;;
3597;SDS011;1813;52.016;8.714;2022-08-11T03:28:48;7.27;;;5.60;;
3597;SDS011;1813;52.016;8.714;2022-08-11T03:31:26;10.30;;;5.40;;
3597;SDS011;1813;52.016;8.714;2022-08-11T03:34:03;6.83;;;5.17;;
3597;SDS011;1813;52.016;8.714;2022-08-11T03:36:58;12.23;;;4.90;;
3597;SDS011;1813;52.016;8.714;2022-08-11T03:39:44;9.40;;;5.47;;
3597;SDS011;1813;52.016;8.714;2022-08-11T03:42:22;10.50;;;5.43;;
3597;SDS011;1813;52.016;8.714;2022-08-11T03:45:02;5.73;;;5.13;;
3597;SDS011;1813;52.016;8.714;2022-08-11T03:47:54;8.57;;;5.67;;
3597;SDS011;1813;52.016;8.714;2022-08-11T03:50:53;6.73;;;5.63;;
3597;SDS011;1813;52.016;8.714;2022-08-11T03:53:54;7.83;;;5.40;;
3597;SDS011;1813;52.016;8.714;2022-08-11T03:56:56;6.30;;;5.70;;
3597;SDS011;1813;52.016;8.714;2022-08-11T04:03:11;9.47;;;5.60;;
3597;SDS011;1813;52.016;8.714;2022-08-11T04:12:28;11.40;;;5.60;;
3597;SDS011;1813;52.016;8.714;2022-08-11T04:18:46;8.23;;;5.87;;
3597;SDS011;1813;52.016;8.714;2022-08-11T04:21:56;10.07;;;6.60;;
3597;SDS011;1813;52.016;8.714;2022-08-11T04:25:02;12.53;;;6.47;;
3597;SDS011;1813;52.016;8.714;2022-08-11T04:28:03;8.67;;;6.30;;
3597;SDS011;1813;52.016;8.714;2022-08-11T04:30:57;7.40;;;6.20;;
3597;SDS011;1813;52.016;8.714;2022-08-11T04:33:48;9.27;;;6.37;;
3597;SDS011;1813;52.016;8.714;2022-08-11T04:36:45;9.10;;;6.10;;
3597;SDS011;1813;52.016;8.714;2022-08-11T04:40:05;10.30;;;6.20;;
3597;SDS011;1813;52.016;8.714;2022-08-11T04:46:13;14.47;;;6.10;;
3597;SDS011;1813;52.016;8.714;2022-08-11T04:49:27;17.83;;;6.40;;
3597;SDS011;1813;52.016;8.714;2022-08-11T04:52:38;15.30;;;6.77;;
3597;SDS011;1813;52.016;8.714;2022-08-11T04:59:05;13.20;;;6.70;;
3597;SDS011;1813;52.016;8.714;2022-08-11T05:05:14;9.87;;;7.47;;
3597;SDS011;1813;52.016;8.714;2022-08-11T05:11:24;13.47;;;6.90;;
3597;SDS011;1813;52.016;8.714;2022-08-11T05:14:26;11.23;;;7.20;;
3597;SDS011;1813;52.016;8.714;2022-08-11T05:17:33;19.93;;;7.60;;
3597;SDS011;1813;52.016;8.714;2022-08-11T05:20:25;15.77;;;7.87;;
3597;SDS011;1813;52.016;8.714;2022-08-11T05:23:16;10.50;;;7.63;;
3597;SDS011;1813;52.016;8.714;2022-08-11T05:26:11;14.27;;;7.33;;
3597;SDS011;1813;52.016;8.714;2022-08-11T05:29:23;10.53;;;7.53;;
3597;SDS011;1813;52.016;8.714;2022-08-11T05:32:23;21.63;;;8.87;;
3597;SDS011;1813;52.016;8.714;2022-08-11T05:35:17;13.87;;;8.27;;
3597;SDS011;1813;52.016;8.714;2022-08-11T05:37:57;15.90;;;8.50;;
3597;SDS011;1813;52.016;8.714;2022-08-11T05:40:47;11.67;;;8.57;;
3597;SDS011;1813;52.016;8.714;2022-08-11T05:43:38;11.23;;;8.10;;
3597;SDS011;1813;52.016;8.714;2022-08-11T05:46:38;14.23;;;7.90;;
3597;SDS011;1813;52.016;8.714;2022-08-11T05:49:29;13.37;;;7.50;;
3597;SDS011;1813;52.016;8.714;2022-08-11T05:52:20;10.97;;;8.17;;
3597;SDS011;1813;52.016;8.714;2022-08-11T05:55:11;11.03;;;7.93;;
3597;SDS011;1813;52.016;8.714;2022-08-11T05:58:02;17.83;;;8.63;;
3597;SDS011;1813;52.016;8.714;2022-08-11T06:00:40;16.73;;;8.50;;
3597;SDS011;1813;52.016;8.714;2022-08-11T06:03:21;11.43;;;8.57;;
3597;SDS011;1813;52.016;8.714;2022-08-11T06:05:57;15.03;;;7.70;;
3597;SDS011;1813;52.016;8.714;2022-08-11T06:08:30;8.73;;;7.90;;
3597;SDS011;1813;52.016;8.714;2022-08-11T06:11:05;9.73;;;7.80;;
3597;SDS011;1813;52.016;8.714;2022-08-11T06:13:40;13.13;;;7.23;;
3597;SDS011;1813;52.016;8.714;2022-08-11T06:16:18;11.23;;;6.97;;
3597;SDS011;1813;52.016;8.714;2022-08-11T06:18:54;9.90;;;7.30;;
3597;SDS011;1813;52.016;8.714;2022-08-11T06:21:26;13.83;;;7.53;;
3597;SDS011;1813;52.016;8.714;2022-08-11T06:23:58;11.30;;;7.30;;
3597;SDS011;1813;52.016;8.714;2022-08-11T06:26:31;12.37;;;6.97;;
3597;SDS011;1813;52.016;8.714;2022-08-11T06:29:03;13.50;;;6.90;;
3597;SDS011;1813;52.016;8.714;2022-08-11T06:31:37;17.73;;;7.20;;
3597;SDS011;1813;52.016;8.714;2022-08-11T06:34:11;7.30;;;6.20;;
3597;SDS011;1813;52.016;8.714;2022-08-11T06:36:56;8.70;;;6.83;;
3597;SDS011;1813;52.016;8.714;2022-08-11T06:39:42;8.20;;;7.00;;
3597;SDS011;1813;52.016;8.714;2022-08-11T06:42:31;11.03;;;6.97;;
3597;SDS011;1813;52.016;8.714;2022-08-11T06:45:13;13.40;;;6.80;;
3597;SDS011;1813;52.016;8.714;2022-08-11T06:47:53;9.27;;;6.40;;
3597;SDS011;1813;52.016;8.714;2022-08-11T06:50:31;8.13;;;6.90;;
3597;SDS011;1813;52.016;8.714;2022-08-11T06:53:21;8.03;;;5.90;;
3597;SDS011;1813;52.016;8.714;2022-08-11T06:55:54;13.50;;;6.37;;
3597;SDS011;1813;52.016;8.714;2022-08-11T06:58:47;22.83;;;6.33;;
3597;SDS011;1813;52.016;8.714;2022-08-11T07:01:39;8.93;;;5.80;;
3597;SDS011;1813;52.016;8.714;2022-08-11T07:04:19;8.70;;;5.40;;
3597;SDS011;1813;52.016;8.714;2022-08-11T07:07:06;17.70;;;5.97;;
3597;SDS011;1813;52.016;8.714;2022-08-11T07:10:18;10.33;;;4.43;;
3597;SDS011;1813;52.016;8.714;2022-08-11T07:13:16;15.77;;;4.97;;
3597;SDS011;1813;52.016;8.714;2022-08-11T07:16:10;11.00;;;4.60;;
3597;SDS011;1813;52.016;8.714;2022-08-11T07:18:46;8.20;;;4.77;;
3597;SDS011;1813;52.016;8.714;2022-08-11T07:21:36;10.50;;;5.90;;
3597;SDS011;1813;52.016;8.714;2022-08-11T07:24:32;10.93;;;5.60;;
3597;SDS011;1813;52.016;8.714;2022-08-11T07:27:26;13.50;;;4.70;;
3597;SDS011;1813;52.016;8.714;2022-08-11T07:30:18;6.20;;;4.90;;
3597;SDS011;1813;52.016;8.714;2022-08-11T07:32:51;8.43;;;5.27;;
3597;SDS011;1813;52.016;8.714;2022-08-11T07:35:27;13.13;;;4.60;;
3597;SDS011;1813;52.016;8.714;2022-08-11T07:38:04;11.33;;;4.23;;
3597;SDS011;1813;52.016;8.714;2022-08-11T07:40:39;10.83;;;4.50;;
3597;SDS011;1813;52.016;8.714;2022-08-11T07:43:13;7.60;;;4.43;;
3597;SDS011;1813;52.016;8.714;2022-08-11T07:45:46;13.30;;;4.17;;
3597;SDS011;1813;52.016;8.714;2022-08-11T07:48:47;6.70;;;3.67;;
3597;SDS011;1813;52.016;8.714;2022-08-11T07:51:38;7.57;;;4.47;;
3597;SDS011;1813;52.016;8.714;2022-08-11T07:54:28;7.30;;;3.80;;
3597;SDS011;1813;52.016;8.714;2022-08-11T07:57:02;11.60;;;3.57;;
3597;SDS011;1813;52.016;8.714;2022-08-11T07:59:56;12.10;;;3.47;;
3597;SDS011;1813;52.016;8.714;2022-08-11T08:02:49;12.27;;;3.57;;
3597;SDS011;1813;52.016;8.714;2022-08-11T08:05:39;10.60;;;3.17;;
3597;SDS011;1813;52.016;8.714;2022-08-11T08:08:30;11.70;;;3.40;;
3597;SDS011;1813;52.016;8.714;2022-08-11T08:11:20;8.97;;;3.27;;
3597;SDS011;1813;52.016;8.714;2022-08-11T08:14:12;7.70;;;2.90;;
3597;SDS011;1813;52.016;8.714;2022-08-11T08:17:01;14.70;;;3.50;;
3597;SDS011;1813;52.016;8.714;2022-08-11T08:19:51;6.20;;;3.00;;
3597;SDS011;1813;52.016;8.714;2022-08-11T08:22:23;4.90;;;2.83;;
3597;SDS011;1813;52.016;8.714;2022-08-11T08:24:56;12.53;;;3.10;;
3597;SDS011;1813;52.016;8.714;2022-08-11T08:27:28;4.10;;;2.90;;
3597;SDS011;1813;52.016;8.714;2022-08-11T08:30:02;8.60;;;2.60;;
3597;SDS011;1813;52.016;8.714;2022-08-11T08:32:54;13.03;;;2.90;;
3597;SDS011;1813;52.016;8.714;2022-08-11T08:35:26;4.33;;;3.00;;
3597;SDS011;1813;52.016;8.714;2022-08-11T08:37:59;13.00;;;2.80;;
3597;SDS011;1813;52.016;8.714;2022-08-11T08:40:31;9.50;;;2.63;;
3597;SDS011;1813;52.016;8.714;2022-08-11T08:43:06;2.57;;;2.37;;
3597;SDS011;1813;52.016;8.714;2022-08-11T08:45:41;3.70;;;2.27;;
3597;SDS011;1813;52.016;8.714;2022-08-11T08:48:15;5.73;;;2.60;;
3597;SDS011;1813;52.016;8.714;2022-08-11T08:50:51;4.50;;;2.40;;
3597;SDS011;1813;52.016;8.714;2022-08-11T08:53:45;11.60;;;2.33;;
3597;SDS011;1813;52.016;8.714;2022-08-11T08:56:24;4.27;;;2.40;;
3597;SDS011;1813;52.016;8.714;2022-08-11T08:58:58;10.93;;;2.73;;
3597;SDS011;1813;52.016;8.714;2022-08-11T09:01:35;8.50;;;2.70;;
3597;SDS011;1813;52.016;8.714;2022-08-11T09:04:11;6.27;;;2.50;;
3597;SDS011;1813;52.016;8.714;2022-08-11T09:06:44;14.07;;;2.40;;
3597;SDS011;1813;52.016;8.714;2022-08-11T09:09:17;8.40;;;2.53;;
3597;SDS011;1813;52.016;8.714;2022-08-11T09:11:51;7.80;;;2.70;;
3597;SDS011;1813;52.016;8.714;2022-08-11T09:14:24;5.20;;;2.50;;
3597;SDS011;1813;52.016;8.714;2022-08-11T09:17:20;2.43;;;2.33;;
3597;SDS011;1813;52.016;8.714;2022-08-11T09:19:54;9.30;;;2.60;;
3597;SDS011;1813;52.016;8.714;2022-08-11T09:22:29;8.20;;;2.60;;
3597;SDS011;1813;52.016;8.714;2022-08-11T09:25:21;2.60;;;2.40;;
3597;SDS011;1813;52.016;8.714;2022-08-11T09:28:15;6.20;;;2.90;;
3597;SDS011;1813;52.016;8.714;2022-08-11T09:30:51;3.80;;;2.90;;
3597;SDS011;1813;52.016;8.714;2022-08-11T09:33:26;2.93;;;2.53;;
3597;SDS011;1813;52.016;8.714;2022-08-11T09:36:00;4.13;;;2.70;;
3597;SDS011;1813;52.016;8.714;2022-08-11T09:38:54;9.10;;;2.80;;
3597;SDS011;1813;52.016;8.714;2022-08-11T09:41:44;7.27;;;2.83;;
3597;SDS011;1813;52.016;8.714;2022-08-11T09:44:17;11.43;;;2.80;;
3597;SDS011;1813;52.016;8.714;2022-08-11T09:47:07;4.57;;;2.80;;
3597;SDS011;1813;52.016;8.714;2022-08-11T09:49:45;6.13;;;2.63;;
3597;SDS011;1813;52.016;8.714;2022-08-11T09:52:20;3.10;;;2.70;;
3597;SDS011;1813;52.016;8.714;2022-08-11T09:54:55;5.53;;;3.30;;
3597;SDS011;1813;52.016;8.714;2022-08-11T09:57:27;5.07;;;3.27;;
3597;SDS011;1813;52.016;8.714;2022-08-11T10:00:17;3.83;;;2.90;;
3597;SDS011;1813;52.016;8.714;2022-08-11T10:02:50;5.40;;;3.07;;
3597;SDS011;1813;52.016;8.714;2022-08-11T10:05:25;13.57;;;3.10;;
3597;SDS011;1813;52.016;8.714;2022-08-11T10:08:14;4.83;;;2.70;;
3597;SDS011;1813;52.016;8.714;2022-08-11T10:10:48;10.63;;;3.00;;
3597;SDS011;1813;52.016;8.714;2022-08-11T10:13:21;7.23;;;2.60;;
3597;SDS011;1813;52.016;8.714;2022-08-11T10:15:58;11.23;;;3.37;;
3597;SDS011;1813;52.016;8.714;2022-08-11T10:18:32;2.80;;;2.70;;
3597;SDS011;1813;52.016;8.714;2022-08-11T10:21:27;7.87;;;2.73;;
3597;SDS011;1813;52.016;8.714;2022-08-11T10:24:04;3.33;;;2.90;;
3597;SDS011;1813;52.016;8.714;2022-08-11T10:26:55;2.80;;;2.60;;
3597;SDS011;1813;52.016;8.714;2022-08-11T10:29:30;3.10;;;2.80;;
3597;SDS011;1813;52.016;8.714;2022-08-11T10:32:21;5.43;;;2.60;;
3597;SDS011;1813;52.016;8.714;2022-08-11T10:35:13;2.90;;;2.50;;
3597;SDS011;1813;52.016;8.714;2022-08-11T10:37:47;6.83;;;2.73;;
3597;SDS011;1813;52.016;8.714;2022-08-11T10:40:20;4.90;;;3.10;;
3597;SDS011;1813;52.016;8.714;2022-08-11T10:42:55;3.03;;;2.40;;
3597;SDS011;1813;52.016;8.714;2022-08-11T10:45:36;5.27;;;3.00;;
3597;SDS011;1813;52.016;8.714;2022-08-11T10:48:28;3.73;;;2.50;;
3597;SDS011;1813;52.016;8.714;2022-08-11T10:51:01;7.80;;;2.70;;
3597;SDS011;1813;52.016;8.714;2022-08-11T10:53:50;8.07;;;2.40;;
3597;SDS011;1813;52.016;8.714;2022-08-11T10:56:40;2.90;;;2.70;;
3597;SDS011;1813;52.016;8.714;2022-08-11T10:59:30;7.93;;;2.50;;
3597;SDS011;1813;52.016;8.714;2022-08-11T11:02:04;4.57;;;2.47;;
3597;SDS011;1813;52.016;8.714;2022-08-11T11:04:38;6.70;;;2.60;;
3597;SDS011;1813;52.016;8.714;2022-08-11T11:07:20;2.53;;;2.33;;
3597;SDS011;1813;52.016;8.714;2022-08-11T11:09:56;4.30;;;2.60;;
3597;SDS011;1813;52.016;8.714;2022-08-11T11:12:32;5.33;;;2.33;;
3597;SDS011;1813;52.016;8.714;2022-08-11T11:15:25;6.67;;;2.70;;
3597;SDS011;1813;52.016;8.714;2022-08-11T11:18:18;2.70;;;2.50;;
3597;SDS011;1813;52.016;8.714;2022-08-11T11:20:53;5.60;;;2.37;;
3597;SDS011;1813;52.016;8.714;2022-08-11T11:23:31;12.03;;;2.57;;
3597;SDS011;1813;52.016;8.714;2022-08-11T11:26:19;3.63;;;2.30;;
3597;SDS011;1813;52.016;8.714;2022-08-11T11:29:18;2.67;;;2.57;;
3597;SDS011;1813;52.016;8.714;2022-08-11T11:32:03;2.63;;;2.43;;
3597;SDS011;1813;52.016;8.714;2022-08-11T11:37:41;4.07;;;2.70;;
3597;SDS011;1813;52.016;8.714;2022-08-11T11:40:17;2.50;;;2.40;;
3597;SDS011;1813;52.016;8.714;2022-08-11T11:42:53;5.03;;;2.63;;
3597;SDS011;1813;52.016;8.714;2022-08-11T11:45:28;3.93;;;2.80;;
3597;SDS011;1813;52.016;8.714;2022-08-11T11:48:00;16.90;;;2.47;;
3597;SDS011;1813;52.016;8.714;2022-08-11T11:50:33;6.40;;;2.50;;
3597;SDS011;1813;52.016;8.714;2022-08-11T11:53:07;10.00;;;2.67;;
3597;SDS011;1813;52.016;8.714;2022-08-11T11:55:40;9.27;;;2.10;;
3597;SDS011;1813;52.016;8.714;2022-08-11T11:58:15;2.40;;;2.30;;
3597;SDS011;1813;52.016;8.714;2022-08-11T12:01:05;6.03;;;2.43;;
3597;SDS011;1813;52.016;8.714;2022-08-11T12:03:48;4.00;;;2.70;;
3597;SDS011;1813;52.016;8.714;2022-08-11T12:06:21;4.37;;;2.20;;
3597;SDS011;1813;52.016;8.714;2022-08-11T12:08:55;8.20;;;2.30;;
3597;SDS011;1813;52.016;8.714;2022-08-11T12:11:29;9.93;;;2.50;;
3597;SDS011;1813;52.016;8.714;2022-08-11T12:14:21;5.80;;;2.40;;
3597;SDS011;1813;52.016;8.714;2022-08-11T12:16:55;5.33;;;2.27;;
3597;SDS011;1813;52.016;8.714;2022-08-11T12:19:27;4.87;;;2.30;;
3597;SDS011;1813;52.016;8.714;2022-08-11T12:22:00;2.90;;;2.70;;
3597;SDS011;1813;52.016;8.714;2022-08-11T12:24:49;6.70;;;2.37;;
3597;SDS011;1813;52.016;8.714;2022-08-11T12:27:39;3.43;;;2.60;;
3597;SDS011;1813;52.016;8.714;2022-08-11T12:30:12;2.87;;;2.37;;
3597;SDS011;1813;52.016;8.714;2022-08-11T12:32:44;3.40;;;2.27;;
3597;SDS011;1813;52.016;8.714;2022-08-11T12:35:16;5.60;;;2.70;;
3597;SDS011;1813;52.016;8.714;2022-08-11T12:37:50;7.53;;;2.57;;
3597;SDS011;1813;52.016;8.714;2022-08-11T12:40:25;9.67;;;2.40;;
3597;SDS011;1813;52.016;8.714;2022-08-11T12:43:15;2.67;;;2.53;;
3597;SDS011;1813;52.016;8.714;2022-08-11T12:46:07;4.03;;;2.20;;
3597;SDS011;1813;52.016;8.714;2022-08-11T12:48:43;8.23;;;2.50;;
3597;SDS011;1813;52.016;8.714;2022-08-11T12:51:35;6.33;;;2.43;;
3597;SDS011;1813;52.016;8.714;2022-08-11T12:54:28;21.23;;;2.50;;
3597;SDS011;1813;52.016;8.714;2022-08-11T12:57:06;7.90;;;2.10;;
3597;SDS011;1813;52.016;8.714;2022-08-11T13:00:00;6.10;;;2.10;;
3597;SDS011;1813;52.016;8.714;2022-08-11T13:02:53;12.10;;;2.60;;
3597;SDS011;1813;52.016;8.714;2022-08-11T13:05:44;8.60;;;2.20;;
3597;SDS011;1813;52.016;8.714;2022-08-11T13:08:18;39.27;;;2.90;;
3597;SDS011;1813;52.016;8.714;2022-08-11T13:10:52;5.80;;;2.40;;
3597;SDS011;1813;52.016;8.714;2022-08-11T13:13:44;17.43;;;2.80;;
3597;SDS011;1813;52.016;8.714;2022-08-11T13:16:19;2.20;;;2.00;;
3597;SDS011;1813;52.016;8.714;2022-08-11T13:18:54;6.00;;;2.33;;
3597;SDS011;1813;52.016;8.714;2022-08-11T13:21:27;25.67;;;2.67;;
3597;SDS011;1813;52.016;8.714;2022-08-11T13:24:00;9.23;;;2.10;;
3597;SDS011;1813;52.016;8.714;2022-08-11T13:26:33;65.57;;;4.00;;
3597;SDS011;1813;52.016;8.714;2022-08-11T13:29:07;2.40;;;2.30;;
3597;SDS011;1813;52.016;8.714;2022-08-11T13:31:39;4.03;;;2.30;;
3597;SDS011;1813;52.016;8.714;2022-08-11T13:34:15;3.27;;;2.10;;
3597;SDS011;1813;52.016;8.714;2022-08-11T13:36:48;7.50;;;2.53;;
3597;SDS011;1813;52.016;8.714;2022-08-11T13:39:22;3.80;;;2.00;;
3597;SDS011;1813;52.016;8.714;2022-08-11T13:41:57;3.60;;;2.23;;
3597;SDS011;1813;52.016;8.714;2022-08-11T13:44:32;6.20;;;2.33;;
3597;SDS011;1813;52.016;8.714;2022-08-11T13:47:06;4.90;;;2.20;;
3597;SDS011;1813;52.016;8.714;2022-08-11T13:49:43;6.60;;;2.30;;
3597;SDS011;1813;52.016;8.714;2022-08-11T13:52:17;3.87;;;2.30;;
3597;SDS011;1813;52.016;8.714;2022-08-11T13:54:49;10.77;;;2.50;;
3597;SDS011;1813;52.016;8.714;2022-08-11T13:57:22;3.77;;;2.00;;
3597;SDS011;1813;52.016;8.714;2022-08-11T13:59:55;3.83;;;2.03;;
3597;SDS011;1813;52.016;8.714;2022-08-11T14:02:42;4.83;;;2.20;;
3597;SDS011;1813;52.016;8.714;2022-08-11T14:05:21;6.00;;;2.00;;
3597;SDS011;1813;52.016;8.714;2022-08-11T14:07:58;3.30;;;2.07;;
3597;SDS011;1813;52.016;8.714;2022-08-11T14:10:32;2.40;;;2.20;;
3597;SDS011;1813;52.016;8.714;2022-08-11T14:13:09;5.47;;;2.17;;
3597;SDS011;1813;52.016;8.714;2022-08-11T14:16:03;6.40;;;2.30;;
3597;SDS011;1813;52.016;8.714;2022-08-11T14:18:39;5.10;;;2.43;;
3597;SDS011;1813;52.016;8.714;2022-08-11T14:21:17;5.47;;;2.37;;
3597;SDS011;1813;52.016;8.714;2022-08-11T14:24:20;2.43;;;2.30;;
3597;SDS011;1813;52.016;8.714;2022-08-11T14:26:53;2.50;;;2.30;;
3597;SDS011;1813;52.016;8.714;2022-08-11T14:29:26;2.40;;;2.30;;
3597;SDS011;1813;52.016;8.714;2022-08-11T14:32:02;2.23;;;2.10;;
3597;SDS011;1813;52.016;8.714;2022-08-11T14:34:37;2.30;;;2.10;;
3597;SDS011;1813;52.016;8.714;2022-08-11T14:37:13;4.47;;;2.40;;
3597;SDS011;1813;52.016;8.714;2022-08-11T14:39:50;2.83;;;2.27;;
3597;SDS011;1813;52.016;8.714;2022-08-11T14:42:24;11.23;;;2.20;;
3597;SDS011;1813;52.016;8.714;2022-08-11T14:45:15;3.60;;;2.57;;
3597;SDS011;1813;52.016;8.714;2022-08-11T14:48:08;5.17;;;2.30;;
3597;SDS011;1813;52.016;8.714;2022-08-11T14:50:40;31.73;;;2.97;;
3597;SDS011;1813;52.016;8.714;2022-08-11T14:53:13;3.53;;;2.20;;
3597;SDS011;1813;52.016;8.714;2022-08-11T14:55:46;4.47;;;2.20;;
3597;SDS011;1813;52.016;8.714;2022-08-11T14:58:35;6.83;;;2.23;;
3597;SDS011;1813;52.016;8.714;2022-08-11T15:01:08;5.70;;;2.63;;
3597;SDS011;1813;52.016;8.714;2022-08-11T15:03:54;4.23;;;2.60;;
3597;SDS011;1813;52.016;8.714;2022-08-11T15:06:29;2.30;;;2.20;;
3597;SDS011;1813;52.016;8.714;2022-08-11T15:09:04;8.77;;;2.20;;
3597;SDS011;1813;52.016;8.714;2022-08-11T15:11:37;4.23;;;2.20;;
3597;SDS011;1813;52.016;8.714;2022-08-11T15:14:26;7.50;;;2.30;;
3597;SDS011;1813;52.016;8.714;2022-08-11T15:17:12;4.73;;;2.30;;
3597;SDS011;1813;52.016;8.714;2022-08-11T15:19:46;2.60;;;2.30;;
3597;SDS011;1813;52.016;8.714;2022-08-11T15:22:33;2.70;;;2.50;;
3597;SDS011;1813;52.016;8.714;2022-08-11T15:25:24;4.30;;;2.73;;
3597;SDS011;1813;52.016;8.714;2022-08-11T15:27:57;2.50;;;2.40;;
3597;SDS011;1813;52.016;8.714;2022-08-11T15:30:49;7.40;;;2.37;;
3597;SDS011;1813;52.016;8.714;2022-08-11T15:33:43;2.77;;;2.40;;
3597;SDS011;1813;52.016;8.714;2022-08-11T15:36:33;8.50;;;2.30;;
3597;SDS011;1813;52.016;8.714;2022-08-11T15:39:26;2.70;;;2.43;;
3597;SDS011;1813;52.016;8.714;2022-08-11T15:42:03;4.20;;;2.60;;
3597;SDS011;1813;52.016;8.714;2022-08-11T15:45:00;5.33;;;2.50;;
3597;SDS011;1813;52.016;8.714;2022-08-11T15:47:54;4.53;;;2.70;;
3597;SDS011;1813;52.016;8.714;2022-08-11T15:50:29;5.93;;;2.80;;
3597;SDS011;1813;52.016;8.714;2022-08-11T15:53:07;7.07;;;2.87;;
3597;SDS011;1813;52.016;8.714;2022-08-11T15:55:42;6.00;;;2.50;;
3597;SDS011;1813;52.016;8.714;2022-08-11T15:58:16;7.00;;;2.77;;
3597;SDS011;1813;52.016;8.714;2022-08-11T16:01:08;4.40;;;2.73;;
3597;SDS011;1813;52.016;8.714;2022-08-11T16:04:01;13.33;;;3.00;;
3597;SDS011;1813;52.016;8.714;2022-08-11T16:06:44;7.83;;;3.10;;
3597;SDS011;1813;52.016;8.714;2022-08-11T16:09:25;5.70;;;2.60;;
3597;SDS011;1813;52.016;8.714;2022-08-11T16:12:01;3.57;;;2.80;;
3597;SDS011;1813;52.016;8.714;2022-08-11T16:14:38;3.40;;;2.67;;
3597;SDS011;1813;52.016;8.714;2022-08-11T16:17:32;2.83;;;2.57;;
3597;SDS011;1813;52.016;8.714;2022-08-11T16:20:07;2.97;;;2.77;;
3597;SDS011;1813;52.016;8.714;2022-08-11T16:22:42;8.10;;;2.90;;
3597;SDS011;1813;52.016;8.714;2022-08-11T16:25:18;7.77;;;2.77;;
3597;SDS011;1813;52.016;8.714;2022-08-11T16:27:54;5.83;;;2.90;;
3597;SDS011;1813;52.016;8.714;2022-08-11T16:30:30;5.23;;;3.07;;
3597;SDS011;1813;52.016;8.714;2022-08-11T16:33:04;3.00;;;2.80;;
3597;SDS011;1813;52.016;8.714;2022-08-11T16:35:37;4.13;;;3.00;;
3597;SDS011;1813;52.016;8.714;2022-08-11T16:38:27;4.23;;;3.10;;
3597;SDS011;1813;52.016;8.714;2022-08-11T16:41:15;3.90;;;3.17;;
3597;SDS011;1813;52.016;8.714;2022-08-11T16:44:09;6.20;;;3.30;;
3597;SDS011;1813;52.016;8.714;2022-08-11T16:47:02;7.20;;;2.87;;
3597;SDS011;1813;52.016;8.714;2022-08-11T16:49:37;6.73;;;2.83;;
3597;SDS011;1813;52.016;8.714;2022-08-11T16:52:12;5.30;;;2.97;;
3597;SDS011;1813;52.016;8.714;2022-08-11T16:54:46;9.43;;;3.10;;
3597;SDS011;1813;52.016;8.714;2022-08-11T16:57:19;7.80;;;2.90;;
3597;SDS011;1813;52.016;8.714;2022-08-11T17:00:12;5.30;;;2.77;;
3597;SDS011;1813;52.016;8.714;2022-08-11T17:02:48;3.03;;;2.73;;
3597;SDS011;1813;52.016;8.714;2022-08-11T17:05:36;6.50;;;2.93;;
3597;SDS011;1813;52.016;8.714;2022-08-11T17:08:31;6.63;;;3.27;;
3597;SDS011;1813;52.016;8.714;2022-08-11T17:11:25;5.63;;;2.80;;
3597;SDS011;1813;52.016;8.714;2022-08-11T17:14:19;3.17;;;2.93;;
3597;SDS011;1813;52.016;8.714;2022-08-11T17:16:54;7.33;;;2.97;;
3597;SDS011;1813;52.016;8.714;2022-08-11T17:19:31;3.37;;;2.90;;
3597;SDS011;1813;52.016;8.714;2022-08-11T17:22:04;6.00;;;2.67;;
3597;SDS011;1813;52.016;8.714;2022-08-11T17:24:54;3.80;;;2.70;;
3597;SDS011;1813;52.016;8.714;2022-08-11T17:27:28;4.70;;;3.27;;
3597;SDS011;1813;52.016;8.714;2022-08-11T17:30:02;6.73;;;2.80;;
3597;SDS011;1813;52.016;8.714;2022-08-11T17:32:36;7.63;;;2.67;;
3597;SDS011;1813;52.016;8.714;2022-08-11T17:35:29;8.20;;;3.17;;
3597;SDS011;1813;52.016;8.714;2022-08-11T17:38:07;6.73;;;2.90;;
3597;SDS011;1813;52.016;8.714;2022-08-11T17:40:42;11.67;;;3.00;;
3597;SDS011;1813;52.016;8.714;2022-08-11T17:43:30;5.40;;;3.03;;
3597;SDS011;1813;52.016;8.714;2022-08-11T17:46:20;3.80;;;2.80;;
3597;SDS011;1813;52.016;8.714;2022-08-11T17:49:11;5.50;;;3.20;;